Time;durP1;ratioP1;P1;durP2;ratioP2;P2;SDS_P1;SDS_P2;PMS_P1;PMS_P2;Temp;Humidity;BMP_temperature;BMP_pressure;BME280_temperature;BME280_humidity;BME280_pressure;Samples;Min_cycle;Max_cycle;Signal;HPM_P1;HPM_P2
2022/08/26 00:00:45;;;;;;;18.15;4.63;;;;;;;26.68;81.62;100445.59;4926839;29;20388;-76
2022/08/26 00:03:31;;;;;;;14.57;4.10;;;;;;;26.79;80.28;100449.00;4940901;29;20055;-76
2022/08/26 00:06:17;;;;;;;20.48;4.85;;;;;;;26.65;81.98;100452.06;4922482;29;20051;-76
2022/08/26 00:09:04;;;;;;;18.38;5.18;;;;;;;26.52;83.25;100447.88;4922023;29;20072;-75
2022/08/26 00:11:49;;;;;;;20.08;5.25;;;;;;;26.59;83.62;100443.69;4922336;29;20042;-75
2022/08/26 00:14:35;;;;;;;18.02;5.07;;;;;;;26.62;82.94;100433.53;4922460;29;20031;-76
2022/08/26 00:17:21;;;;;;;15.43;4.22;;;;;;;26.40;84.30;100433.66;4923220;29;20372;-76
2022/08/26 00:20:09;;;;;;;18.45;4.55;;;;;;;26.36;85.75;100426.03;4921772;29;20065;-76
2022/08/26 00:22:55;;;;;;;16.50;4.28;;;;;;;26.44;84.48;100420.81;4906744;29;20035;-76
2022/08/26 00:25:41;;;;;;;17.33;4.40;;;;;;;26.37;85.50;100417.78;4922058;29;20036;-75
2022/08/26 00:28:26;;;;;;;22.73;4.93;;;;;;;26.42;85.87;100417.41;4908848;29;20024;-76
2022/08/26 00:31:12;;;;;;;15.95;3.95;;;;;;;26.28;86.55;100417.78;4921674;29;20032;-75
2022/08/26 00:33:58;;;;;;;11.60;4.18;;;;;;;26.44;85.75;100418.16;4921469;29;20047;-75
2022/08/26 00:36:44;;;;;;;17.33;4.68;;;;;;;26.51;85.63;100421.97;4908505;29;20028;-76
2022/08/26 00:39:30;;;;;;;19.40;4.50;;;;;;;26.33;86.28;100416.38;4907814;29;20122;-76
2022/08/26 00:42:16;;;;;;;17.80;4.30;;;;;;;25.93;89.65;100422.59;4922392;29;20028;-75
2022/08/26 00:45:03;;;;;;;12.52;4.43;;;;;;;26.24;88.94;100429.78;4921245;29;20472;-75
2022/08/26 00:47:56;;;;;;;21.05;4.22;;;;;;;25.77;91.21;100415.00;4907634;29;20028;-76
2022/08/26 00:50:52;;;;;;;24.63;4.30;;;;;;;25.95;90.80;100410.78;4907811;29;20403;-76
2022/08/26 00:53:44;;;;;;;18.52;4.30;;;;;;;25.78;90.70;100419.41;4921145;29;20111;-76
2022/08/26 00:56:53;;;;;;;17.63;4.32;;;;;;;25.70;91.05;100412.97;4907031;29;20032;-77
2022/08/26 00:59:39;;;;;;;19.00;4.82;;;;;;;25.87;89.51;100413.25;4921787;29;20446;-75
2022/08/26 01:02:26;;;;;;;20.77;4.30;;;;;;;25.70;90.51;100419.19;4919981;29;20039;-75
2022/08/26 01:05:13;;;;;;;21.88;4.68;;;;;;;25.66;91.49;100417.75;4930767;29;20055;-75
2022/08/26 01:07:58;;;;;;;18.52;3.95;;;;;;;25.85;89.70;100411.66;4939291;29;20028;-76
2022/08/26 01:10:44;;;;;;;18.50;5.20;;;;;;;25.68;90.88;100417.63;4926500;29;20027;-76
2022/08/26 01:13:31;;;;;;;19.58;4.70;;;;;;;25.77;89.41;100422.19;4939110;29;20037;-76
2022/08/26 01:16:16;;;;;;;18.75;4.70;;;;;;;25.83;89.52;100417.16;4938888;29;20167;-76
2022/08/26 01:19:14;;;;;;;21.52;4.85;;;;;;;26.01;86.82;100420.16;4939558;29;20031;-75
2022/08/26 01:22:21;;;;;;;23.52;4.88;;;;;;;26.06;85.32;100420.59;4938237;29;20103;-75
2022/08/26 01:25:07;;;;;;;18.10;4.80;;;;;;;25.79;88.79;100426.47;4925952;29;20031;-76
2022/08/26 01:27:56;;;;;;;15.75;4.55;;;;;;;25.89;90.36;100442.63;4939113;29;20377;-76
2022/08/26 01:30:44;;;;;;;16.52;4.40;;;;;;;25.57;94.41;100425.72;4925237;29;20120;-76
2022/08/26 01:34:16;;;;;;;14.32;4.43;;;;;;;25.38;96.26;100441.63;4937510;29;20422;-76
2022/08/26 01:37:15;;;;;;;18.35;4.25;;;;;;;25.35;96.77;100444.59;4939495;29;20071;-75
2022/08/26 01:40:04;;;;;;;15.27;4.38;;;;;;;25.44;94.52;100451.88;4938005;29;20058;-75
2022/08/26 01:42:51;;;;;;;15.50;4.13;;;;;;;25.07;97.87;100450.47;4925944;29;20032;-75
2022/08/26 01:45:39;;;;;;;12.15;4.45;;;;;;;25.14;98.70;100443.63;4938825;29;20457;-75
2022/08/26 01:48:29;;;;;;;16.48;4.30;;;;;;;25.06;99.62;100446.94;4939409;29;20510;-76
2022/08/26 01:51:17;;;;;;;15.30;4.32;;;;;;;25.52;96.17;100444.03;4939486;29;20028;-76
2022/08/26 01:54:06;;;;;;;12.30;4.20;;;;;;;25.24;98.65;100447.25;4938984;29;20039;-75
2022/08/26 01:56:52;;;;;;;20.27;4.40;;;;;;;25.16;99.95;100447.03;4934256;29;20445;-74
2022/08/26 01:59:38;;;;;;;14.18;4.03;;;;;;;25.14;99.41;100441.78;4955351;29;20018;-74
2022/08/26 02:02:25;;;;;;;23.13;4.88;;;;;;;25.24;98.89;100447.25;4956724;29;20039;-75
2022/08/26 02:05:15;;;;;;;16.25;4.07;;;;;;;24.98;100.00;100448.50;4936742;29;20141;-75
2022/08/26 02:08:03;;;;;;;17.23;4.30;;;;;;;24.79;100.00;100446.47;4937156;29;20012;-74
2022/08/26 02:10:49;;;;;;;13.80;4.22;;;;;;;24.78;100.00;100446.59;4936302;29;20123;-74
2022/08/26 02:13:41;;;;;;;22.10;4.65;;;;;;;24.80;100.00;100439.28;4935736;29;20103;-73
2022/08/26 02:16:30;;;;;;;23.77;4.72;;;;;;;25.04;100.00;100448.03;4936230;29;20040;-75
2022/08/26 02:19:32;;;;;;;13.45;4.43;;;;;;;24.86;100.00;100447.69;4935412;29;20071;-73
2022/08/26 02:22:21;;;;;;;15.63;4.38;;;;;;;24.63;100.00;100445.16;4936163;29;20024;-74
2022/08/26 02:25:10;;;;;;;14.35;4.10;;;;;;;24.93;100.00;100440.88;4927052;29;20028;-75
2022/08/26 02:27:56;;;;;;;14.45;4.03;;;;;;;24.79;100.00;100432.25;4928104;29;20028;-75
2022/08/26 02:30:43;;;;;;;15.65;4.20;;;;;;;24.77;100.00;100442.22;4929710;29;20362;-74
2022/08/26 02:33:29;;;;;;;17.70;4.13;;;;;;;24.98;100.00;100443.16;4924204;29;20107;-76
2022/08/26 02:36:20;;;;;;;13.90;4.22;;;;;;;25.06;100.00;100440.69;4920408;29;20094;-76
2022/08/26 02:39:07;;;;;;;19.23;4.43;;;;;;;24.75;100.00;100445.00;4920510;29;20028;-76
2022/08/26 02:41:52;;;;;;;17.50;4.20;;;;;;;24.97;100.00;100447.69;4919862;29;20115;-76
2022/08/26 02:44:38;;;;;;;20.80;4.40;;;;;;;25.05;100.00;100455.09;4919926;29;20029;-75
2022/08/26 02:47:24;;;;;;;15.02;3.97;;;;;;;24.68;100.00;100442.94;4919553;29;20039;-75
2022/08/26 02:50:10;;;;;;;13.43;3.80;;;;;;;24.69;100.00;100447.34;4918670;29;20043;-75
2022/08/26 02:52:56;;;;;;;13.63;4.18;;;;;;;24.55;100.00;100447.56;4920889;29;20046;-76
2022/08/26 02:55:42;;;;;;;12.55;4.03;;;;;;;24.97;100.00;100447.69;4921603;29;20083;-76
2022/08/26 02:58:28;;;;;;;18.17;4.53;;;;;;;24.78;100.00;100444.78;4919452;29;20387;-75
2022/08/26 03:01:24;;;;;;;17.80;5.15;;;;;;;24.89;100.00;100443.91;4919120;29;20461;-76
2022/08/26 03:04:11;;;;;;;14.38;4.97;;;;;;;24.91;100.00;100444.66;4921929;29;20438;-76
2022/08/26 03:06:57;;;;;;;22.80;5.15;;;;;;;24.72;100.00;100447.97;4938077;29;20114;-76
2022/08/26 03:09:43;;;;;;;15.75;4.95;;;;;;;24.71;100.00;100440.88;4938317;29;20023;-76
2022/08/26 03:12:29;;;;;;;16.30;4.70;;;;;;;24.56;100.00;100446.56;4938122;29;20174;-76
2022/08/26 03:15:16;;;;;;;15.27;4.63;;;;;;;24.51;100.00;100454.13;4938124;29;20124;-75
2022/08/26 03:18:02;;;;;;;10.73;4.70;;;;;;;24.78;100.00;100460.84;4925019;29;20091;-75
2022/08/26 03:20:48;;;;;;;9.85;3.88;;;;;;;24.87;100.00;100460.09;4938440;29;20024;-76
2022/08/26 03:23:34;;;;;;;18.00;4.45;;;;;;;24.59;100.00;100452.53;4938780;29;20438;-76
2022/08/26 03:26:19;;;;;;;15.77;4.82;;;;;;;24.29;100.00;100459.44;4945963;29;20031;-75
2022/08/26 03:32:10;;;;;;;14.90;4.30;;;;;;;24.26;100.00;100459.72;4944808;29;20032;-75
2022/08/26 03:34:56;;;;;;;20.30;4.72;;;;;;;24.14;100.00;100457.97;4944854;29;20027;-75
2022/08/26 03:37:42;;;;;;;15.52;4.50;;;;;;;24.38;100.00;100464.06;4931684;29;20039;-75
2022/08/26 03:40:28;;;;;;;12.48;3.83;;;;;;;24.60;100.00;100458.75;4933582;29;20035;-75
2022/08/26 03:43:15;;;;;;;16.25;4.25;;;;;;;24.15;100.00;100465.03;4946513;29;20028;-75
2022/08/26 03:46:10;;;;;;;15.68;4.00;;;;;;;24.44;100.00;100464.47;4946099;29;20118;-75
2022/08/26 03:48:56;;;;;;;13.15;4.07;;;;;;;24.41;100.00;100462.03;4943648;29;20042;-76
2022/08/26 03:51:42;;;;;;;15.13;4.60;;;;;;;24.18;100.00;100456.78;4944501;29;20114;-76
2022/08/26 03:54:28;;;;;;;15.27;4.25;;;;;;;24.47;100.00;100468.75;4944003;29;20111;-76
2022/08/26 03:57:14;;;;;;;17.70;4.53;;;;;;;24.54;100.00;100459.22;4943381;29;20042;-76
2022/08/26 03:59:59;;;;;;;14.13;5.10;;;;;;;24.77;100.00;100469.00;4944175;29;20372;-76
2022/08/26 04:02:49;;;;;;;12.50;4.32;;;;;;;24.51;100.00;100468.34;4930993;29;20042;-75
2022/08/26 04:05:35;;;;;;;18.33;4.72;;;;;;;24.85;100.00;100463.88;4943637;29;20044;-75
2022/08/26 04:08:21;;;;;;;13.93;4.53;;;;;;;24.83;100.00;100471.22;4943554;29;20020;-75
2022/08/26 04:11:07;;;;;;;22.80;5.38;;;;;;;24.65;100.00;100467.31;4942994;29;20436;-75
2022/08/26 04:13:53;;;;;;;20.42;5.00;;;;;;;24.55;100.00;100469.00;4942874;29;20043;-75
2022/08/26 04:16:41;;;;;;;17.75;4.93;;;;;;;24.70;100.00;100465.97;4943296;29;20027;-76
2022/08/26 04:19:26;;;;;;;18.38;4.80;;;;;;;24.62;100.00;100476.44;4930032;29;20032;-76
2022/08/26 04:22:12;;;;;;;22.83;4.55;;;;;;;24.75;100.00;100485.22;4943207;29;20368;-76
2022/08/26 04:24:58;;;;;;;15.25;4.75;;;;;;;25.07;100.00;100482.66;4943114;29;20045;-76
2022/08/26 04:27:44;;;;;;;13.93;4.70;;;;;;;24.81;100.00;100479.38;4943033;29;20034;-76
2022/08/26 04:30:30;;;;;;;12.68;4.32;;;;;;;25.07;100.00;100482.66;4943110;29;20120;-76
2022/08/26 04:33:15;;;;;;;17.17;4.88;;;;;;;25.38;100.00;100480.06;4943029;29;20027;-76
2022/08/26 04:36:02;;;;;;;14.18;4.38;;;;;;;25.40;100.00;100485.28;4929090;29;20024;-76
2022/08/26 04:38:49;;;;;;;12.65;4.70;;;;;;;25.54;100.00;100485.00;4925989;29;20369;-76
2022/08/26 04:41:35;;;;;;;14.57;4.68;;;;;;;25.23;100.00;100480.44;4941205;29;20063;-76
2022/08/26 04:44:24;;;;;;;13.35;4.50;;;;;;;25.38;100.00;100482.72;4941046;29;20364;-76
2022/08/26 04:47:10;;;;;;;14.48;4.68;;;;;;;25.23;100.00;100494.66;4940066;29;20095;-76
2022/08/26 04:49:56;;;;;;;12.98;4.20;;;;;;;25.45;100.00;100488.44;4939865;29;20024;-75
2022/08/26 04:52:42;;;;;;;11.45;4.30;;;;;;;25.67;100.00;100485.66;4939927;29;20028;-76
2022/08/26 04:55:28;;;;;;;16.33;4.13;;;;;;;25.48;100.00;100485.50;4926613;29;20122;-76
2022/08/26 04:58:16;;;;;;;18.27;4.20;;;;;;;25.47;100.00;100489.19;4940030;29;20135;-75
2022/08/26 05:01:01;;;;;;;20.27;4.75;;;;;;;25.48;100.00;100482.84;4925496;29;20080;-75
2022/08/26 05:03:48;;;;;;;14.85;4.72;;;;;;;25.35;100.00;100482.97;4939592;29;20031;-76
2022/08/26 05:06:33;;;;;;;15.27;6.35;;;;;;;25.75;100.00;100483.19;4939884;29;20051;-76
2022/08/26 05:09:19;;;;;;;14.48;5.00;;;;;;;25.70;100.00;100485.41;4926561;29;20016;-76
2022/08/26 05:12:05;;;;;;;14.60;5.15;;;;;;;25.66;100.00;100489.34;4940197;29;20062;-76
2022/08/26 05:14:52;;;;;;;19.15;4.82;;;;;;;25.46;100.00;100490.13;4939828;29;20031;-75
2022/08/26 05:17:37;;;;;;;17.80;5.32;;;;;;;25.37;100.00;100486.41;4940001;29;20035;-76
2022/08/26 05:20:24;;;;;;;19.45;5.22;;;;;;;25.80;98.82;100481.84;4940201;29;20023;-75
2022/08/26 05:23:22;;;;;;;12.35;4.32;;;;;;;25.97;97.88;100488.53;4927990;29;20472;-76
2022/08/26 05:26:08;;;;;;;16.25;4.80;;;;;;;25.94;97.04;100486.09;4941616;29;20115;-76
2022/08/26 05:28:55;;;;;;;13.02;5.05;;;;;;;25.97;94.63;100484.00;4928498;29;20050;-76
2022/08/26 05:31:43;;;;;;;19.38;4.35;;;;;;;26.09;90.69;100482.97;4941345;29;20035;-76
2022/08/26 05:34:29;;;;;;;17.58;4.82;;;;;;;25.64;95.16;100488.63;4930734;29;20082;-75
2022/08/26 05:37:15;;;;;;;15.63;5.30;;;;;;;25.45;96.13;100481.25;4940938;29;20028;-75
2022/08/26 05:40:03;;;;;;;20.95;5.88;;;;;;;25.86;95.33;100481.34;4926393;29;20118;-76
2022/08/26 05:42:49;;;;;;;20.67;5.43;;;;;;;26.00;90.70;100485.59;4940187;29;20102;-75
2022/08/26 05:45:37;;;;;;;18.67;4.53;;;;;;;26.49;86.36;100480.38;4940250;29;20365;-76
2022/08/26 05:48:23;;;;;;;17.08;5.28;;;;;;;26.34;88.98;100484.38;4939742;29;20063;-75
2022/08/26 05:51:10;;;;;;;16.13;5.05;;;;;;;27.02;84.11;100482.78;4925702;29;20027;-76
2022/08/26 05:53:56;;;;;;;14.82;5.88;;;;;;;26.19;86.85;100483.00;4938591;29;20028;-75
2022/08/26 05:56:42;;;;;;;19.50;7.10;;;;;;;26.81;86.24;100492.72;4938747;29;20043;-76
2022/08/26 05:59:28;;;;;;;14.05;5.47;;;;;;;27.19;83.20;100486.63;4939130;29;20110;-75
2022/08/26 06:02:14;;;;;;;17.50;5.60;;;;;;;27.06;81.19;100489.59;4939331;29;20028;-75
2022/08/26 06:04:59;;;;;;;15.82;5.63;;;;;;;26.80;86.31;100484.81;4938748;29;20047;-75
2022/08/26 06:10:53;;;;;;;15.57;5.63;;;;;;;26.61;88.65;100488.25;4937309;29;20115;-75
2022/08/26 06:13:39;;;;;;;12.30;5.20;;;;;;;26.81;87.06;100495.41;4938386;29;20427;-76
2022/08/26 06:16:25;;;;;;;18.33;6.22;;;;;;;26.66;90.42;100498.59;4938766;29;20032;-75
2022/08/26 06:19:14;;;;;;;14.90;5.40;;;;;;;26.79;91.57;100499.22;4924896;29;20031;-76
2022/08/26 06:25:36;;;;;;;9.63;5.30;;;;;;;26.44;92.29;100496.06;4939608;29;20429;-75
2022/08/26 06:28:11;;;;;;;12.38;5.55;;;;;;;26.33;94.03;100490.75;4937542;29;20024;-75
2022/08/26 06:30:57;;;;;;;12.80;5.68;;;;;;;26.50;94.50;100500.88;4924709;29;20528;-75
2022/08/26 06:33:44;;;;;;;18.15;7.18;;;;;;;26.24;98.85;100500.44;4936946;29;20101;-76
2022/08/26 06:36:31;;;;;;;17.95;5.40;;;;;;;26.33;96.50;100491.59;4925195;29;20032;-76
2022/08/26 06:39:17;;;;;;;16.35;5.05;;;;;;;26.67;95.91;100498.47;4937071;29;20441;-75
2022/08/26 06:42:03;;;;;;;11.60;4.95;;;;;;;26.66;96.08;100504.84;4937615;29;20032;-75
2022/08/26 06:44:49;;;;;;;13.07;4.43;;;;;;;26.34;95.79;100495.13;4938269;29;20106;-75
2022/08/26 06:47:35;;;;;;;16.58;5.03;;;;;;;26.65;94.67;100500.44;4938547;29;20119;-75
2022/08/26 06:50:21;;;;;;;14.60;4.47;;;;;;;26.51;95.96;100497.22;4936532;29;20031;-76
2022/08/26 06:53:08;;;;;;;14.20;4.63;;;;;;;27.06;92.01;100505.72;4937719;29;20401;-75
2022/08/26 06:55:54;;;;;;;16.92;4.93;;;;;;;27.12;90.87;100502.47;4937619;29;20111;-76
2022/08/26 06:58:41;;;;;;;15.55;4.45;;;;;;;27.24;87.78;100497.88;4937276;29;20027;-76
2022/08/26 07:01:30;;;;;;;16.65;5.05;;;;;;;27.31;90.35;100497.19;4936802;29;20046;-76
2022/08/26 07:04:16;;;;;;;11.90;5.00;;;;;;;27.43;87.36;100504.16;4924615;29;20051;-76
2022/08/26 07:07:02;;;;;;;14.13;5.20;;;;;;;27.62;84.54;100497.09;4937437;29;20047;-76
2022/08/26 07:09:48;;;;;;;19.73;5.22;;;;;;;27.65;80.94;100505.75;4938221;29;20445;-75
2022/08/26 07:12:35;;;;;;;18.73;5.95;;;;;;;27.39;85.72;100507.25;4938277;29;20035;-76
2022/08/26 07:15:21;;;;;;;15.60;5.20;;;;;;;27.94;79.67;100508.47;4937410;29;20050;-75
2022/08/26 07:18:08;;;;;;;17.02;5.53;;;;;;;28.23;75.06;100512.00;4937719;29;20027;-75
2022/08/26 07:20:53;;;;;;;15.75;5.53;;;;;;;28.51;70.13;100501.22;4937510;29;20512;-76
2022/08/26 07:23:39;;;;;;;12.05;5.20;;;;;;;28.73;63.45;100510.81;4937897;29;20083;-76
2022/08/26 07:26:27;;;;;;;19.35;6.25;;;;;;;29.00;63.37;100514.41;4937588;29;20031;-76
2022/08/26 07:29:15;;;;;;;19.85;9.02;;;;;;;29.05;61.73;100511.28;4937096;29;20028;-76
2022/08/26 07:32:01;;;;;;;16.33;6.40;;;;;;;29.26;56.42;100515.44;4923293;29;20067;-76
2022/08/26 07:34:47;;;;;;;15.88;5.70;;;;;;;29.23;57.93;100512.16;4935955;29;20055;-76
2022/08/26 07:37:34;;;;;;;15.05;5.20;;;;;;;28.82;57.66;100504.53;4937621;29;20055;-76
2022/08/26 07:40:20;;;;;;;17.33;5.72;;;;;;;28.80;59.29;100506.53;4911465;29;20027;-75
2022/08/26 07:43:10;;;;;;;19.88;5.85;;;;;;;28.96;58.74;100501.31;4925846;29;20062;-76
2022/08/26 07:45:59;;;;;;;14.70;4.53;;;;;;;28.15;66.22;100496.56;4940369;29;20039;-76
2022/08/26 07:49:30;;;;;;;13.25;4.72;;;;;;;28.53;63.64;100493.00;4940139;29;20019;-77
2022/08/26 07:52:16;;;;;;;14.18;4.95;;;;;;;28.54;62.12;100498.22;4862207;29;20039;-75
2022/08/26 07:55:04;;;;;;;16.27;5.20;;;;;;;29.02;59.93;100500.78;4850204;29;20056;-76
2022/08/26 07:57:50;;;;;;;20.85;5.25;;;;;;;29.95;55.33;100496.78;4932828;29;20051;-76
2022/08/26 08:00:35;;;;;;;19.48;5.32;;;;;;;29.40;61.24;100498.72;4936500;29;20027;-76
2022/08/26 08:03:22;;;;;;;18.35;5.30;;;;;;;29.67;58.08;100497.84;4939045;29;20035;-76
2022/08/26 08:06:08;;;;;;;24.40;5.85;;;;;;;29.27;58.95;100491.97;4940908;29;20043;-76
2022/08/26 08:08:55;;;;;;;13.32;4.95;;;;;;;28.78;62.91;100490.50;4942179;29;20057;-76
2022/08/26 08:11:43;;;;;;;10.57;4.90;;;;;;;29.05;61.04;100489.69;4940857;29;20027;-76
2022/08/26 08:14:29;;;;;;;14.20;5.18;;;;;;;29.61;62.97;100491.22;4940219;29;20027;-75
2022/08/26 08:17:15;;;;;;;16.95;6.65;;;;;;;29.54;57.06;100498.19;4941074;29;20368;-75
2022/08/26 08:20:02;;;;;;;38.10;24.73;;;;;;;29.49;58.56;100484.31;4933924;29;20042;-76
2022/08/26 08:22:50;;;;;;;22.30;11.65;;;;;;;30.45;50.89;100479.81;4948049;29;20032;-78
2022/08/26 08:25:35;;;;;;;21.45;7.22;;;;;;;30.10;53.62;100490.66;4956502;29;20023;-75
2022/08/26 08:28:21;;;;;;;13.18;6.13;;;;;;;30.65;52.74;100485.84;4943157;29;20082;-75
2022/08/26 08:31:07;;;;;;;25.88;6.68;;;;;;;30.08;50.75;100481.00;4956825;29;20039;-75
2022/08/26 08:33:53;;;;;;;12.40;5.05;;;;;;;30.69;50.79;100473.72;4953329;29;20028;-74
2022/08/26 08:36:38;;;;;;;17.90;4.90;;;;;;;30.99;51.32;100470.50;4955905;29;20031;-76
2022/08/26 08:39:25;;;;;;;9.20;4.63;;;;;;;30.89;45.76;100467.06;4956977;29;20028;-76
2022/08/26 08:42:26;;;;;;;16.38;5.03;;;;;;;30.96;46.35;100474.38;4956415;29;20035;-75
2022/08/26 08:45:24;;;;;;;13.23;4.75;;;;;;;30.24;48.59;100460.41;4948615;29;20019;-75
2022/08/26 08:48:13;;;;;;;12.02;4.72;;;;;;;30.80;48.65;100466.19;4952874;29;20043;-76
2022/08/26 08:51:23;;;;;;;17.73;4.93;;;;;;;31.02;46.86;100462.88;4949665;29;20024;-74
2022/08/26 08:54:09;;;;;;;14.52;5.20;;;;;;;31.68;45.68;100465.66;4954731;29;20030;-75
2022/08/26 08:57:08;;;;;;;19.17;4.97;;;;;;;31.60;46.37;100456.66;4954015;29;20169;-75
2022/08/26 09:00:23;;;;;;;12.63;4.60;;;;;;;31.72;44.59;100447.19;4948130;29;20072;-76
2022/08/26 09:03:14;;;;;;;18.95;4.25;;;;;;;32.37;42.49;100449.75;4949462;29;20059;-76
2022/08/26 09:06:02;;;;;;;13.30;4.72;;;;;;;31.70;45.20;100443.81;4947387;29;20067;-76
2022/08/26 09:08:52;;;;;;;14.93;4.90;;;;;;;31.59;45.06;100439.56;4931416;29;20055;-76
2022/08/26 09:11:38;;;;;;;15.77;4.97;;;;;;;32.01;44.17;100439.44;4930306;29;20422;-75
2022/08/26 09:14:26;;;;;;;16.23;4.60;;;;;;;32.57;42.57;100433.94;4941456;29;20038;-77
2022/08/26 09:17:31;;;;;;;10.55;4.50;;;;;;;33.18;42.35;100437.63;4927172;29;20047;-76
2022/08/26 09:20:42;;;;;;;13.18;4.75;;;;;;;33.17;40.39;100438.66;4941045;29;20091;-75
2022/08/26 09:23:35;;;;;;;16.52;4.45;;;;;;;33.44;38.86;100443.63;4939242;29;20055;-76
2022/08/26 09:26:47;;;;;;;14.20;4.75;;;;;;;33.83;38.30;100443.56;4928265;29;20031;-77
2022/08/26 09:29:43;;;;;;;11.40;4.45;;;;;;;33.43;37.81;100438.38;4944502;29;20027;-75
2022/08/26 09:32:30;;;;;;;18.33;4.63;;;;;;;33.20;38.26;100435.59;4939478;29;20434;-77
2022/08/26 09:35:32;;;;;;;17.83;5.00;;;;;;;33.37;39.04;100439.94;4948965;29;20107;-76
2022/08/26 09:38:33;;;;;;;13.48;5.15;;;;;;;33.23;40.05;100434.38;4936785;29;20031;-77
2022/08/26 09:41:23;;;;;;;20.58;4.30;;;;;;;32.43;38.45;100437.38;4935543;29;20039;-77
2022/08/26 09:44:16;;;;;;;10.70;3.63;;;;;;;32.18;38.49;100430.28;4936183;29;20031;-74
2022/08/26 09:47:11;;;;;;;8.85;3.80;;;;;;;32.09;39.14;100434.00;4934882;29;20027;-76
2022/08/26 09:50:31;;;;;;;10.93;4.30;;;;;;;32.43;39.56;100431.94;4948163;29;20437;-76
2022/08/26 09:53:21;;;;;;;15.50;4.32;;;;;;;32.35;38.96;100432.81;4915979;29;20082;-75
2022/08/26 09:56:37;;;;;;;11.07;3.75;;;;;;;32.09;39.20;100432.13;4946029;29;20368;-76
2022/08/26 09:59:29;;;;;;;11.30;4.28;;;;;;;32.32;39.20;100435.88;4938108;29;20031;-76
2022/08/26 10:02:25;;;;;;;12.38;3.88;;;;;;;32.23;38.76;100433.31;4956212;29;20087;-76
2022/08/26 10:05:16;;;;;;;15.18;4.32;;;;;;;32.07;38.21;100438.75;4953577;29;20075;-75
2022/08/26 10:08:29;;;;;;;11.68;4.40;;;;;;;32.18;39.97;100433.00;4956339;29;20397;-76
2022/08/26 10:11:49;;;;;;;7.95;3.75;;;;;;;32.46;40.38;100428.91;4953047;29;20036;-75
2022/08/26 10:14:48;;;;;;;10.57;3.78;;;;;;;32.01;39.36;100434.84;4944779;29;20111;-75
2022/08/26 10:18:17;;;;;;;10.50;4.18;;;;;;;32.72;38.94;100422.19;4957049;29;20051;-76
2022/08/26 10:21:27;;;;;;;8.02;3.75;;;;;;;32.38;37.06;100424.31;4877674;29;20034;-75
2022/08/26 10:24:24;;;;;;;8.23;3.70;;;;;;;32.98;37.10;100427.41;4953598;29;20043;-77
2022/08/26 10:27:22;;;;;;;12.90;3.67;;;;;;;32.92;37.13;100426.22;4938090;29;20043;-76
2022/08/26 10:30:21;;;;;;;13.30;3.70;;;;;;;33.09;36.86;100430.53;4953675;29;20023;-75
2022/08/26 10:33:11;;;;;;;8.30;3.88;;;;;;;33.09;37.68;100416.13;4948664;29;20028;-77
2022/08/26 10:36:02;;;;;;;15.00;4.28;;;;;;;33.73;37.36;100418.44;4945777;29;20091;-74
2022/08/26 10:38:47;;;;;;;11.73;4.13;;;;;;;33.78;37.02;100405.13;4951796;29;20028;-75
2022/08/26 10:41:40;;;;;;;7.97;3.97;;;;;;;33.50;36.72;100410.28;4951500;29;20031;-76
2022/08/26 10:44:27;;;;;;;7.63;3.78;;;;;;;33.64;35.39;100404.09;4942014;29;20095;-75
2022/08/26 10:47:22;;;;;;;10.90;3.95;;;;;;;34.14;33.94;100401.63;4949444;29;20047;-76
2022/08/26 10:50:09;;;;;;;6.45;4.10;;;;;;;33.92;35.32;100398.94;4941480;29;20032;-76
2022/08/26 10:53:22;;;;;;;13.00;3.80;;;;;;;32.98;34.68;100402.97;4939373;29;20024;-76
2022/08/26 10:56:45;;;;;;;13.05;4.28;;;;;;;33.15;34.75;100399.13;4941418;29;20034;-76
2022/08/26 10:59:49;;;;;;;12.68;4.43;;;;;;;33.14;34.85;100397.44;4940931;29;20072;-76
2022/08/26 11:02:49;;;;;;;15.38;4.22;;;;;;;32.87;35.35;100393.31;4927887;29;20038;-76
2022/08/26 11:05:34;;;;;;;8.18;4.13;;;;;;;32.62;35.38;100391.69;4938581;29;20073;-76
2022/08/26 11:08:20;;;;;;;13.35;3.92;;;;;;;32.44;36.40;100384.81;4940528;29;20070;-75
2022/08/26 11:11:07;;;;;;;14.35;4.22;;;;;;;32.64;38.32;100381.53;4939305;29;20099;-76
2022/08/26 11:13:56;;;;;;;14.38;4.32;;;;;;;33.12;36.39;100386.75;4938455;29;20066;-76
2022/08/26 11:16:47;;;;;;;9.88;4.47;;;;;;;33.11;36.14;100381.50;4926310;29;20032;-76
2022/08/26 11:19:39;;;;;;;12.80;3.90;;;;;;;32.93;37.22;100378.19;4939260;29;20031;-75
2022/08/26 11:22:37;;;;;;;11.35;5.40;;;;;;;33.09;37.63;100378.09;4939094;29;20114;-76
2022/08/26 11:25:24;;;;;;;15.07;4.35;;;;;;;32.63;37.59;100381.69;4938860;29;20051;-76
2022/08/26 11:28:34;;;;;;;9.95;4.28;;;;;;;33.24;37.43;100370.88;4938671;29;20031;-75
2022/08/26 11:31:23;;;;;;;17.40;4.93;;;;;;;33.31;35.26;100369.97;4938666;29;20038;-76
2022/08/26 11:34:15;;;;;;;11.00;4.22;;;;;;;33.38;34.43;100370.13;4925291;29;20425;-76
2022/08/26 11:37:11;;;;;;;10.48;4.53;;;;;;;33.33;35.84;100372.53;4939393;29;20023;-76
2022/08/26 11:39:56;;;;;;;11.48;3.83;;;;;;;33.41;36.85;100367.91;4937446;29;20110;-76
2022/08/26 11:42:56;;;;;;;13.02;4.53;;;;;;;33.58;35.55;100369.47;4937855;29;20042;-76
2022/08/26 11:45:45;;;;;;;18.55;4.18;;;;;;;33.10;34.78;100369.78;4937573;29;20031;-76
2022/08/26 11:48:40;;;;;;;13.05;4.78;;;;;;;33.55;34.28;100360.84;4927612;29;20043;-75
2022/08/26 11:51:27;;;;;;;8.95;3.90;;;;;;;33.38;35.39;100364.69;4927034;29;20032;-76
2022/08/26 11:54:19;;;;;;;8.68;4.57;;;;;;;33.49;35.08;100356.13;4941079;29;20043;-76
2022/08/26 11:57:11;;;;;;;12.88;4.70;;;;;;;33.40;34.25;100349.06;4941793;29;20069;-76
2022/08/26 11:59:57;;;;;;;12.95;4.28;;;;;;;34.01;34.75;100344.31;4941834;29;20027;-76
2022/08/26 12:02:43;;;;;;;10.30;4.10;;;;;;;34.47;34.41;100342.28;4940994;29;20028;-76
2022/08/26 12:05:42;;;;;;;9.90;4.30;;;;;;;34.48;35.00;100338.53;4920488;29;20118;-76
2022/08/26 12:08:42;;;;;;;9.60;4.18;;;;;;;33.73;35.00;100328.75;4922704;29;20031;-76
2022/08/26 12:11:34;;;;;;;10.20;4.53;;;;;;;33.60;34.87;100328.53;4922987;29;20031;-76
2022/08/26 12:14:24;;;;;;;12.73;4.47;;;;;;;33.36;34.92;100332.31;4921903;29;20028;-75
2022/08/26 12:17:18;;;;;;;11.43;4.30;;;;;;;33.59;35.53;100327.66;4921579;29;20040;-76
2022/08/26 12:20:15;;;;;;;12.40;4.13;;;;;;;33.98;34.26;100327.50;4922246;29;20035;-75
2022/08/26 12:23:01;;;;;;;8.73;4.20;;;;;;;33.95;34.75;100323.28;4922560;29;20043;-76
2022/08/26 12:25:49;;;;;;;10.30;4.78;;;;;;;33.21;35.15;100319.63;4921908;29;20032;-76
2022/08/26 12:28:54;;;;;;;9.90;4.13;;;;;;;33.90;36.04;100314.84;4920715;29;20430;-76
2022/08/26 12:31:42;;;;;;;16.52;5.53;;;;;;;34.31;34.87;100312.56;4920522;29;20054;-77
2022/08/26 12:34:28;;;;;;;10.18;4.35;;;;;;;34.23;34.07;100309.91;4922831;29;20024;-76
2022/08/26 12:37:14;;;;;;;11.00;4.50;;;;;;;34.24;34.22;100311.59;4921542;29;20036;-77
2022/08/26 12:40:38;;;;;;;13.18;4.75;;;;;;;34.46;34.72;100311.50;4921741;29;20112;-76
2022/08/26 12:43:42;;;;;;;13.88;4.47;;;;;;;34.34;34.44;100313.00;4921380;29;20060;-76
2022/08/26 12:46:28;;;;;;;13.88;4.28;;;;;;;34.37;34.42;100312.66;4922693;29;20354;-76
2022/08/26 12:49:17;;;;;;;7.03;4.05;;;;;;;34.78;34.05;100311.06;4922423;29;20406;-77
2022/08/26 12:52:06;;;;;;;19.02;4.75;;;;;;;34.55;35.48;100301.38;4921714;29;20365;-76
2022/08/26 12:54:58;;;;;;;15.90;4.57;;;;;;;33.92;34.96;100301.06;4921010;29;20385;-76
2022/08/26 12:57:44;;;;;;;16.55;4.50;;;;;;;33.30;34.72;100294.13;4918837;29;20118;-76
2022/08/26 13:00:34;;;;;;;15.32;4.43;;;;;;;34.21;34.37;100292.91;4921116;29;20024;-76
2022/08/26 13:03:34;;;;;;;12.27;4.47;;;;;;;34.62;34.48;100294.97;4920873;29;20526;-76
2022/08/26 13:06:32;;;;;;;10.35;4.68;;;;;;;34.92;34.03;100296.59;4926893;29;20484;-76
2022/08/26 13:09:18;;;;;;;14.35;4.75;;;;;;;34.47;34.63;100296.03;4941160;29;20036;-76
2022/08/26 13:12:04;;;;;;;13.02;4.90;;;;;;;34.30;34.71;100294.50;4939820;29;20334;-76